sensor_id;sensor_type;location;lat;lon;timestamp;temperature;humidity
38325;DHT22;24126;52.672;13.622;2023-05-18T00:00:00;13.90;51.10
38325;DHT22;24126;52.672;13.622;2023-05-18T00:02:27;13.90;51.20
38325;DHT22;24126;52.672;13.622;2023-05-18T00:04:54;13.90;51.30
38325;DHT22;24126;52.672;13.622;2023-05-18T00:07:21;13.80;51.30
38325;DHT22;24126;52.672;13.622;2023-05-18T00:09:48;13.80;51.30
38325;DHT22;24126;52.672;13.622;2023-05-18T00:12:15;13.80;51.50
38325;DHT22;24126;52.672;13.622;2023-05-18T00:14:42;13.80;51.70
38325;DHT22;24126;52.672;13.622;2023-05-18T00:17:09;13.80;51.50
38325;DHT22;24126;52.672;13.622;2023-05-18T00:19:36;13.80;51.50
38325;DHT22;24126;52.672;13.622;2023-05-18T00:22:05;13.80;51.60
38325;DHT22;24126;52.672;13.622;2023-05-18T00:24:32;13.70;51.60
38325;DHT22;24126;52.672;13.622;2023-05-18T00:26:59;13.70;51.60
38325;DHT22;24126;52.672;13.622;2023-05-18T00:29:26;13.70;51.80
38325;DHT22;24126;52.672;13.622;2023-05-18T00:31:53;13.70;51.90
38325;DHT22;24126;52.672;13.622;2023-05-18T00:34:20;13.70;52.20
38325;DHT22;24126;52.672;13.622;2023-05-18T00:36:47;13.70;52.00
38325;DHT22;24126;52.672;13.622;2023-05-18T00:39:14;13.70;52.10
38325;DHT22;24126;52.672;13.622;2023-05-18T00:41:41;13.60;52.00
38325;DHT22;24126;52.672;13.622;2023-05-18T00:44:08;13.60;52.10
38325;DHT22;24126;52.672;13.622;2023-05-18T00:46:35;13.60;52.20
38325;DHT22;24126;52.672;13.622;2023-05-18T00:49:02;13.60;52.50
38325;DHT22;24126;52.672;13.622;2023-05-18T00:51:31;13.60;52.50
38325;DHT22;24126;52.672;13.622;2023-05-18T00:53:58;13.50;52.40
38325;DHT22;24126;52.672;13.622;2023-05-18T00:56:27;13.50;52.60
38325;DHT22;24126;52.672;13.622;2023-05-18T00:58:54;13.40;52.70
38325;DHT22;24126;52.672;13.622;2023-05-18T01:01:25;13.50;52.80
38325;DHT22;24126;52.672;13.622;2023-05-18T01:03:54;13.40;52.70
38325;DHT22;24126;52.672;13.622;2023-05-18T01:06:22;13.40;52.90
38325;DHT22;24126;52.672;13.622;2023-05-18T01:08:52;13.40;53.10
38325;DHT22;24126;52.672;13.622;2023-05-18T01:14:12;13.30;53.40
38325;DHT22;24126;52.672;13.622;2023-05-18T01:24:42;13.30;54.00
38325;DHT22;24126;52.672;13.622;2023-05-18T01:27:09;13.30;53.90
38325;DHT22;24126;52.672;13.622;2023-05-18T01:29:37;13.20;53.80
38325;DHT22;24126;52.672;13.622;2023-05-18T01:32:05;13.20;53.90
38325;DHT22;24126;52.672;13.622;2023-05-18T01:34:32;13.10;53.80
38325;DHT22;24126;52.672;13.622;2023-05-18T01:37:03;13.20;53.90
38325;DHT22;24126;52.672;13.622;2023-05-18T01:39:31;13.10;53.90
38325;DHT22;24126;52.672;13.622;2023-05-18T01:42:00;13.10;53.90
38325;DHT22;24126;52.672;13.622;2023-05-18T01:44:30;13.10;54.20
38325;DHT22;24126;52.672;13.622;2023-05-18T01:47:12;13.10;54.20
38325;DHT22;24126;52.672;13.622;2023-05-18T01:49:50;13.00;54.40
38325;DHT22;24126;52.672;13.622;2023-05-18T01:52:20;13.00;54.40
38325;DHT22;24126;52.672;13.622;2023-05-18T01:54:53;13.00;54.70
38325;DHT22;24126;52.672;13.622;2023-05-18T01:57:22;13.00;54.70
38325;DHT22;24126;52.672;13.622;2023-05-18T01:59:50;13.00;54.70
38325;DHT22;24126;52.672;13.622;2023-05-18T02:02:19;12.90;54.80
38325;DHT22;24126;52.672;13.622;2023-05-18T02:04:46;13.00;54.90
38325;DHT22;24126;52.672;13.622;2023-05-18T02:07:14;12.90;54.90
38325;DHT22;24126;52.672;13.622;2023-05-18T02:09:41;12.90;55.20
38325;DHT22;24126;52.672;13.622;2023-05-18T02:12:09;12.90;55.30
38325;DHT22;24126;52.672;13.622;2023-05-18T02:14:36;12.90;55.30
38325;DHT22;24126;52.672;13.622;2023-05-18T02:17:03;12.90;55.30
38325;DHT22;24126;52.672;13.622;2023-05-18T02:19:32;12.80;55.30
38325;DHT22;24126;52.672;13.622;2023-05-18T02:22:06;12.80;55.90
38325;DHT22;24126;52.672;13.622;2023-05-18T02:24:33;12.80;55.40
38325;DHT22;24126;52.672;13.622;2023-05-18T02:27:00;12.80;55.40
38325;DHT22;24126;52.672;13.622;2023-05-18T02:29:27;12.80;55.60
38325;DHT22;24126;52.672;13.622;2023-05-18T02:31:55;12.80;55.60
38325;DHT22;24126;52.672;13.622;2023-05-18T02:34:22;12.80;55.50
38325;DHT22;24126;52.672;13.622;2023-05-18T02:36:49;12.80;55.60
38325;DHT22;24126;52.672;13.622;2023-05-18T02:39:17;12.80;55.60
38325;DHT22;24126;52.672;13.622;2023-05-18T02:41:44;12.80;55.60
38325;DHT22;24126;52.672;13.622;2023-05-18T02:44:11;12.70;55.70
38325;DHT22;24126;52.672;13.622;2023-05-18T02:46:38;12.70;55.90
38325;DHT22;24126;52.672;13.622;2023-05-18T02:49:06;12.70;55.90
38325;DHT22;24126;52.672;13.622;2023-05-18T02:51:33;12.70;56.10
38325;DHT22;24126;52.672;13.622;2023-05-18T02:54:01;12.60;56.80
38325;DHT22;24126;52.672;13.622;2023-05-18T02:56:30;12.60;56.30
38325;DHT22;24126;52.672;13.622;2023-05-18T02:59:05;12.50;56.20
38325;DHT22;24126;52.672;13.622;2023-05-18T03:01:35;12.50;56.20
38325;DHT22;24126;52.672;13.622;2023-05-18T03:04:04;12.50;56.40
38325;DHT22;24126;52.672;13.622;2023-05-18T03:06:33;12.50;56.60
38325;DHT22;24126;52.672;13.622;2023-05-18T03:09:00;12.50;56.80
38325;DHT22;24126;52.672;13.622;2023-05-18T03:11:34;12.50;56.60
38325;DHT22;24126;52.672;13.622;2023-05-18T03:14:01;12.50;56.90
38325;DHT22;24126;52.672;13.622;2023-05-18T03:16:31;12.40;56.70
38325;DHT22;24126;52.672;13.622;2023-05-18T03:18:58;12.50;56.80
38325;DHT22;24126;52.672;13.622;2023-05-18T03:21:32;12.40;56.80
38325;DHT22;24126;52.672;13.622;2023-05-18T03:24:01;12.40;56.70
38325;DHT22;24126;52.672;13.622;2023-05-18T03:26:30;12.40;56.90
38325;DHT22;24126;52.672;13.622;2023-05-18T03:28:57;12.40;57.00
38325;DHT22;24126;52.672;13.622;2023-05-18T03:31:24;12.40;57.10
38325;DHT22;24126;52.672;13.622;2023-05-18T03:33:52;12.40;57.10
38325;DHT22;24126;52.672;13.622;2023-05-18T03:36:20;12.30;57.40
38325;DHT22;24126;52.672;13.622;2023-05-18T03:38:50;12.30;57.40
38325;DHT22;24126;52.672;13.622;2023-05-18T03:41:17;12.30;57.40
38325;DHT22;24126;52.672;13.622;2023-05-18T03:43:44;12.30;57.50
38325;DHT22;24126;52.672;13.622;2023-05-18T03:46:11;12.30;57.70
38325;DHT22;24126;52.672;13.622;2023-05-18T03:48:38;12.40;57.80
38325;DHT22;24126;52.672;13.622;2023-05-18T03:51:06;12.50;58.00
38325;DHT22;24126;52.672;13.622;2023-05-18T03:53:33;12.60;58.20
38325;DHT22;24126;52.672;13.622;2023-05-18T03:56:01;12.70;58.30
38325;DHT22;24126;52.672;13.622;2023-05-18T03:58:28;12.80;58.10
38325;DHT22;24126;52.672;13.622;2023-05-18T04:00:57;13.00;57.80
38325;DHT22;24126;52.672;13.622;2023-05-18T04:03:24;13.20;57.30
38325;DHT22;24126;52.672;13.622;2023-05-18T04:05:52;13.30;56.90
38325;DHT22;24126;52.672;13.622;2023-05-18T04:08:20;13.40;56.70
38325;DHT22;24126;52.672;13.622;2023-05-18T04:10:51;13.50;56.50
38325;DHT22;24126;52.672;13.622;2023-05-18T04:13:18;13.60;56.30
38325;DHT22;24126;52.672;13.622;2023-05-18T04:15:45;13.70;56.30
38325;DHT22;24126;52.672;13.622;2023-05-18T04:18:12;13.70;56.10
38325;DHT22;24126;52.672;13.622;2023-05-18T04:20:41;14.00;56.40
38325;DHT22;24126;52.672;13.622;2023-05-18T04:23:11;14.50;56.30
38325;DHT22;24126;52.672;13.622;2023-05-18T04:25:38;15.40;55.80
38325;DHT22;24126;52.672;13.622;2023-05-18T04:28:06;16.30;53.60
38325;DHT22;24126;52.672;13.622;2023-05-18T04:30:34;17.30;51.50
38325;DHT22;24126;52.672;13.622;2023-05-18T04:33:02;18.30;49.60
38325;DHT22;24126;52.672;13.622;2023-05-18T04:35:31;19.30;47.60
38325;DHT22;24126;52.672;13.622;2023-05-18T04:37:58;20.20;45.50
38325;DHT22;24126;52.672;13.622;2023-05-18T04:40:25;21.20;43.50
38325;DHT22;24126;52.672;13.622;2023-05-18T04:42:53;22.10;41.50
38325;DHT22;24126;52.672;13.622;2023-05-18T04:45:25;23.00;39.70
38325;DHT22;24126;52.672;13.622;2023-05-18T04:47:55;23.80;37.70
38325;DHT22;24126;52.672;13.622;2023-05-18T04:50:23;24.50;36.20
38325;DHT22;24126;52.672;13.622;2023-05-18T04:52:51;25.10;34.70
38325;DHT22;24126;52.672;13.622;2023-05-18T04:55:20;25.70;33.60
38325;DHT22;24126;52.672;13.622;2023-05-18T04:57:51;26.00;32.40
38325;DHT22;24126;52.672;13.622;2023-05-18T05:00:21;26.20;31.60
38325;DHT22;24126;52.672;13.622;2023-05-18T05:02:50;26.10;31.20
38325;DHT22;24126;52.672;13.622;2023-05-18T05:05:17;25.80;31.10
38325;DHT22;24126;52.672;13.622;2023-05-18T05:07:44;25.30;31.70
38325;DHT22;24126;52.672;13.622;2023-05-18T05:10:11;24.70;32.60
38325;DHT22;24126;52.672;13.622;2023-05-18T05:12:39;24.10;33.80
38325;DHT22;24126;52.672;13.622;2023-05-18T05:15:07;23.40;35.10
38325;DHT22;24126;52.672;13.622;2023-05-18T05:17:35;22.80;36.20
38325;DHT22;24126;52.672;13.622;2023-05-18T05:20:03;22.20;37.40
38325;DHT22;24126;52.672;13.622;2023-05-18T05:22:31;21.70;38.90
38325;DHT22;24126;52.672;13.622;2023-05-18T05:24:58;21.20;39.90
38325;DHT22;24126;52.672;13.622;2023-05-18T05:27:25;20.80;40.60
38325;DHT22;24126;52.672;13.622;2023-05-18T05:29:56;20.40;41.40
38325;DHT22;24126;52.672;13.622;2023-05-18T05:32:23;20.10;42.20
38325;DHT22;24126;52.672;13.622;2023-05-18T05:34:50;19.80;42.70
38325;DHT22;24126;52.672;13.622;2023-05-18T05:37:19;19.60;43.30
38325;DHT22;24126;52.672;13.622;2023-05-18T05:39:47;19.40;43.80
38325;DHT22;24126;52.672;13.622;2023-05-18T05:42:16;19.30;44.10
38325;DHT22;24126;52.672;13.622;2023-05-18T05:44:44;19.20;44.30
38325;DHT22;24126;52.672;13.622;2023-05-18T05:47:11;19.20;44.70
38325;DHT22;24126;52.672;13.622;2023-05-18T05:49:41;19.10;45.00
38325;DHT22;24126;52.672;13.622;2023-05-18T05:52:08;19.10;44.90
38325;DHT22;24126;52.672;13.622;2023-05-18T05:54:35;19.00;44.90
38325;DHT22;24126;52.672;13.622;2023-05-18T05:57:02;19.00;45.80
38325;DHT22;24126;52.672;13.622;2023-05-18T05:59:29;19.00;45.30
38325;DHT22;24126;52.672;13.622;2023-05-18T06:01:57;18.90;45.40
38325;DHT22;24126;52.672;13.622;2023-05-18T06:04:24;18.90;45.90
38325;DHT22;24126;52.672;13.622;2023-05-18T06:06:52;19.00;45.70
38325;DHT22;24126;52.672;13.622;2023-05-18T06:09:20;19.00;45.70
38325;DHT22;24126;52.672;13.622;2023-05-18T06:11:48;19.10;45.80
38325;DHT22;24126;52.672;13.622;2023-05-18T06:14:16;19.10;45.60
38325;DHT22;24126;52.672;13.622;2023-05-18T06:16:44;19.20;45.30
38325;DHT22;24126;52.672;13.622;2023-05-18T06:19:11;19.30;45.00
38325;DHT22;24126;52.672;13.622;2023-05-18T06:21:39;19.40;45.50
38325;DHT22;24126;52.672;13.622;2023-05-18T06:24:07;19.50;45.80
38325;DHT22;24126;52.672;13.622;2023-05-18T06:26:48;19.60;46.50
38325;DHT22;24126;52.672;13.622;2023-05-18T06:29:34;19.60;45.10
38325;DHT22;24126;52.672;13.622;2023-05-18T06:32:36;19.60;45.00
38325;DHT22;24126;52.672;13.622;2023-05-18T06:35:04;19.60;45.50
38325;DHT22;24126;52.672;13.622;2023-05-18T06:37:32;19.60;44.80
38325;DHT22;24126;52.672;13.622;2023-05-18T06:39:59;19.50;45.60
38325;DHT22;24126;52.672;13.622;2023-05-18T06:42:26;19.50;45.30
38325;DHT22;24126;52.672;13.622;2023-05-18T06:45:06;19.50;45.50
38325;DHT22;24126;52.672;13.622;2023-05-18T06:47:51;19.60;45.40
38325;DHT22;24126;52.672;13.622;2023-05-18T06:50:20;19.70;46.00
38325;DHT22;24126;52.672;13.622;2023-05-18T06:52:47;19.80;46.30
38325;DHT22;24126;52.672;13.622;2023-05-18T06:55:15;20.00;45.30
38325;DHT22;24126;52.672;13.622;2023-05-18T06:57:42;20.20;45.60
38325;DHT22;24126;52.672;13.622;2023-05-18T07:00:09;20.40;45.20
38325;DHT22;24126;52.672;13.622;2023-05-18T07:02:37;20.50;44.90
38325;DHT22;24126;52.672;13.622;2023-05-18T07:05:05;20.70;44.00
38325;DHT22;24126;52.672;13.622;2023-05-18T07:07:34;20.80;44.00
38325;DHT22;24126;52.672;13.622;2023-05-18T07:10:02;20.80;43.00
38325;DHT22;24126;52.672;13.622;2023-05-18T07:12:29;20.70;43.10
38325;DHT22;24126;52.672;13.622;2023-05-18T07:14:56;20.70;43.70
38325;DHT22;24126;52.672;13.622;2023-05-18T07:17:23;20.80;42.90
38325;DHT22;24126;52.672;13.622;2023-05-18T07:19:50;20.90;42.70
38325;DHT22;24126;52.672;13.622;2023-05-18T07:22:17;21.00;42.60
38325;DHT22;24126;52.672;13.622;2023-05-18T07:24:44;21.10;41.90
38325;DHT22;24126;52.672;13.622;2023-05-18T07:27:11;21.10;41.90
38325;DHT22;24126;52.672;13.622;2023-05-18T07:29:38;21.20;41.70
38325;DHT22;24126;52.672;13.622;2023-05-18T07:32:06;21.40;41.80
38325;DHT22;24126;52.672;13.622;2023-05-18T07:34:33;21.60;41.70
38325;DHT22;24126;52.672;13.622;2023-05-18T07:37:00;21.80;40.60
38325;DHT22;24126;52.672;13.622;2023-05-18T07:39:28;21.80;40.20
38325;DHT22;24126;52.672;13.622;2023-05-18T07:41:55;21.60;41.00
38325;DHT22;24126;52.672;13.622;2023-05-18T07:44:22;21.50;41.10
38325;DHT22;24126;52.672;13.622;2023-05-18T07:46:50;21.60;41.20
38325;DHT22;24126;52.672;13.622;2023-05-18T07:49:17;21.80;40.70
38325;DHT22;24126;52.672;13.622;2023-05-18T07:51:44;22.00;40.70
38325;DHT22;24126;52.672;13.622;2023-05-18T07:54:11;22.20;39.70
38325;DHT22;24126;52.672;13.622;2023-05-18T07:56:38;22.40;39.10
38325;DHT22;24126;52.672;13.622;2023-05-18T07:59:05;22.40;38.90
38325;DHT22;24126;52.672;13.622;2023-05-18T08:01:32;22.30;38.60
38325;DHT22;24126;52.672;13.622;2023-05-18T08:04:00;22.20;38.90
38325;DHT22;24126;52.672;13.622;2023-05-18T08:06:27;22.10;38.60
38325;DHT22;24126;52.672;13.622;2023-05-18T08:08:54;21.90;39.10
38325;DHT22;24126;52.672;13.622;2023-05-18T08:11:21;21.70;39.30
38325;DHT22;24126;52.672;13.622;2023-05-18T08:13:49;21.60;39.70
38325;DHT22;24126;52.672;13.622;2023-05-18T08:16:16;21.50;39.10
38325;DHT22;24126;52.672;13.622;2023-05-18T08:18:43;21.40;39.40
38325;DHT22;24126;52.672;13.622;2023-05-18T08:21:10;21.30;39.40
38325;DHT22;24126;52.672;13.622;2023-05-18T08:23:37;21.10;39.00
38325;DHT22;24126;52.672;13.622;2023-05-18T08:26:04;21.00;39.30
38325;DHT22;24126;52.672;13.622;2023-05-18T08:28:33;21.00;38.90
38325;DHT22;24126;52.672;13.622;2023-05-18T08:31:00;20.90;38.20
38325;DHT22;24126;52.672;13.622;2023-05-18T08:33:27;20.80;39.00
38325;DHT22;24126;52.672;13.622;2023-05-18T08:35:54;20.80;39.00
38325;DHT22;24126;52.672;13.622;2023-05-18T08:38:21;20.80;38.50
38325;DHT22;24126;52.672;13.622;2023-05-18T08:43:21;20.50;38.40
38325;DHT22;24126;52.672;13.622;2023-05-18T08:48:38;20.30;39.50
38325;DHT22;24126;52.672;13.622;2023-05-18T08:51:06;20.40;39.90
38325;DHT22;24126;52.672;13.622;2023-05-18T08:53:34;20.50;39.20
38325;DHT22;24126;52.672;13.622;2023-05-18T08:56:03;20.60;38.60
38325;DHT22;24126;52.672;13.622;2023-05-18T08:58:34;20.60;38.40
38325;DHT22;24126;52.672;13.622;2023-05-18T09:01:02;20.50;38.80
38325;DHT22;24126;52.672;13.622;2023-05-18T09:03:29;20.40;39.20
38325;DHT22;24126;52.672;13.622;2023-05-18T09:05:58;20.40;38.40
38325;DHT22;24126;52.672;13.622;2023-05-18T09:08:32;20.50;39.30
38325;DHT22;24126;52.672;13.622;2023-05-18T09:11:00;20.80;38.70
38325;DHT22;24126;52.672;13.622;2023-05-18T09:13:28;21.30;39.00
38325;DHT22;24126;52.672;13.622;2023-05-18T09:15:55;21.80;38.70
38325;DHT22;24126;52.672;13.622;2023-05-18T09:18:22;22.40;36.90
38325;DHT22;24126;52.672;13.622;2023-05-18T09:20:49;22.80;36.10
38325;DHT22;24126;52.672;13.622;2023-05-18T09:23:16;23.20;34.60
38325;DHT22;24126;52.672;13.622;2023-05-18T09:25:44;23.50;34.50
38325;DHT22;24126;52.672;13.622;2023-05-18T09:28:31;23.70;33.70
38325;DHT22;24126;52.672;13.622;2023-05-18T09:30:58;24.00;33.70
38325;DHT22;24126;52.672;13.622;2023-05-18T09:33:26;23.90;32.60
38325;DHT22;24126;52.672;13.622;2023-05-18T09:35:58;23.50;33.00
38325;DHT22;24126;52.672;13.622;2023-05-18T09:38:28;23.30;33.80
38325;DHT22;24126;52.672;13.622;2023-05-18T09:40:56;23.10;33.80
38325;DHT22;24126;52.672;13.622;2023-05-18T09:43:25;22.80;34.50
38325;DHT22;24126;52.672;13.622;2023-05-18T09:45:53;22.70;35.20
38325;DHT22;24126;52.672;13.622;2023-05-18T09:48:20;22.50;35.30
38325;DHT22;24126;52.672;13.622;2023-05-18T09:50:48;22.50;35.40
38325;DHT22;24126;52.672;13.622;2023-05-18T09:53:15;22.40;35.00
38325;DHT22;24126;52.672;13.622;2023-05-18T09:55:46;22.40;35.20
38325;DHT22;24126;52.672;13.622;2023-05-18T09:58:14;22.40;35.60
38325;DHT22;24126;52.672;13.622;2023-05-18T10:00:43;22.70;35.40
38325;DHT22;24126;52.672;13.622;2023-05-18T10:03:18;23.10;35.10
38325;DHT22;24126;52.672;13.622;2023-05-18T10:05:45;23.30;34.30
38325;DHT22;24126;52.672;13.622;2023-05-18T10:08:13;23.40;33.40
38325;DHT22;24126;52.672;13.622;2023-05-18T10:10:41;23.20;32.50
38325;DHT22;24126;52.672;13.622;2023-05-18T10:13:12;23.00;33.20
38325;DHT22;24126;52.672;13.622;2023-05-18T10:15:45;22.70;33.40
38325;DHT22;24126;52.672;13.622;2023-05-18T10:18:13;22.50;33.40
38325;DHT22;24126;52.672;13.622;2023-05-18T10:20:42;22.30;33.80
38325;DHT22;24126;52.672;13.622;2023-05-18T10:23:10;22.20;34.00
38325;DHT22;24126;52.672;13.622;2023-05-18T10:25:37;22.30;34.30
38325;DHT22;24126;52.672;13.622;2023-05-18T10:28:06;22.40;33.60
38325;DHT22;24126;52.672;13.622;2023-05-18T10:30:33;22.40;33.30
38325;DHT22;24126;52.672;13.622;2023-05-18T10:33:00;22.40;33.90
38325;DHT22;24126;52.672;13.622;2023-05-18T10:35:28;22.40;33.80
38325;DHT22;24126;52.672;13.622;2023-05-18T10:37:56;22.40;34.50
38325;DHT22;24126;52.672;13.622;2023-05-18T10:40:26;22.40;35.60
38325;DHT22;24126;52.672;13.622;2023-05-18T10:42:55;22.40;35.50
38325;DHT22;24126;52.672;13.622;2023-05-18T10:45:23;22.40;35.40
38325;DHT22;24126;52.672;13.622;2023-05-18T10:47:50;22.50;35.60
38325;DHT22;24126;52.672;13.622;2023-05-18T10:50:23;22.50;35.60
38325;DHT22;24126;52.672;13.622;2023-05-18T10:52:51;22.50;35.50
38325;DHT22;24126;52.672;13.622;2023-05-18T10:55:19;22.50;35.40
38325;DHT22;24126;52.672;13.622;2023-05-18T10:57:48;22.50;35.30
38325;DHT22;24126;52.672;13.622;2023-05-18T11:00:16;22.50;35.50
38325;DHT22;24126;52.672;13.622;2023-05-18T11:02:44;22.50;35.80
38325;DHT22;24126;52.672;13.622;2023-05-18T11:05:12;22.60;35.60
38325;DHT22;24126;52.672;13.622;2023-05-18T11:07:39;22.90;35.60
38325;DHT22;24126;52.672;13.622;2023-05-18T11:10:10;23.20;35.30
38325;DHT22;24126;52.672;13.622;2023-05-18T11:12:37;23.30;34.60
38325;DHT22;24126;52.672;13.622;2023-05-18T11:15:06;23.40;34.60
38325;DHT22;24126;52.672;13.622;2023-05-18T11:17:33;23.40;34.80
38325;DHT22;24126;52.672;13.622;2023-05-18T11:25:08;23.20;34.20
38325;DHT22;24126;52.672;13.622;2023-05-18T11:27:35;23.10;33.90
38325;DHT22;24126;52.672;13.622;2023-05-18T11:30:03;23.00;34.10
38325;DHT22;24126;52.672;13.622;2023-05-18T11:32:30;23.00;34.00
38325;DHT22;24126;52.672;13.622;2023-05-18T11:35:01;22.90;34.10
38325;DHT22;24126;52.672;13.622;2023-05-18T11:40:10;22.80;34.40
38325;DHT22;24126;52.672;13.622;2023-05-18T11:42:38;22.70;34.30
38325;DHT22;24126;52.672;13.622;2023-05-18T11:45:05;22.60;34.20
38325;DHT22;24126;52.672;13.622;2023-05-18T11:47:33;22.40;34.20
38325;DHT22;24126;52.672;13.622;2023-05-18T11:50:05;22.30;34.80
38325;DHT22;24126;52.672;13.622;2023-05-18T11:52:32;22.30;35.40
38325;DHT22;24126;52.672;13.622;2023-05-18T11:54:59;22.40;34.60
38325;DHT22;24126;52.672;13.622;2023-05-18T12:00:00;22.90;33.80
38325;DHT22;24126;52.672;13.622;2023-05-18T12:02:30;23.20;33.30
38325;DHT22;24126;52.672;13.622;2023-05-18T12:04:58;23.40;33.60
38325;DHT22;24126;52.672;13.622;2023-05-18T12:07:26;23.50;32.60
38325;DHT22;24126;52.672;13.622;2023-05-18T12:09:57;23.40;32.40
38325;DHT22;24126;52.672;13.622;2023-05-18T12:12:24;23.20;33.80
38325;DHT22;24126;52.672;13.622;2023-05-18T12:14:53;23.20;33.30
38325;DHT22;24126;52.672;13.622;2023-05-18T12:17:20;23.40;33.60
38325;DHT22;24126;52.672;13.622;2023-05-18T12:19:48;23.60;33.30
38325;DHT22;24126;52.672;13.622;2023-05-18T12:22:15;23.60;32.40
38325;DHT22;24126;52.672;13.622;2023-05-18T12:24:43;23.60;31.80
38325;DHT22;24126;52.672;13.622;2023-05-18T12:27:10;23.50;32.30
38325;DHT22;24126;52.672;13.622;2023-05-18T12:29:38;23.60;33.20
38325;DHT22;24126;52.672;13.622;2023-05-18T12:32:06;23.70;31.90
38325;DHT22;24126;52.672;13.622;2023-05-18T12:34:34;23.70;31.70
38325;DHT22;24126;52.672;13.622;2023-05-18T12:37:01;23.60;32.10
38325;DHT22;24126;52.672;13.622;2023-05-18T12:39:28;23.50;32.30
38325;DHT22;24126;52.672;13.622;2023-05-18T12:42:11;23.50;32.40
38325;DHT22;24126;52.672;13.622;2023-05-18T12:44:40;23.40;32.70
38325;DHT22;24126;52.672;13.622;2023-05-18T12:47:11;23.50;33.00
38325;DHT22;24126;52.672;13.622;2023-05-18T12:49:40;23.60;32.00
38325;DHT22;24126;52.672;13.622;2023-05-18T12:52:11;23.80;32.20
38325;DHT22;24126;52.672;13.622;2023-05-18T12:54:51;24.00;32.20
38325;DHT22;24126;52.672;13.622;2023-05-18T12:57:23;24.00;31.80
38325;DHT22;24126;52.672;13.622;2023-05-18T13:00:03;24.00;31.80
38325;DHT22;24126;52.672;13.622;2023-05-18T13:03:06;23.80;31.70
38325;DHT22;24126;52.672;13.622;2023-05-18T13:05:33;23.40;31.90
38325;DHT22;24126;52.672;13.622;2023-05-18T13:08:00;23.20;32.60
38325;DHT22;24126;52.672;13.622;2023-05-18T13:10:30;23.20;32.30
38325;DHT22;24126;52.672;13.622;2023-05-18T13:12:59;23.20;32.90
38325;DHT22;24126;52.672;13.622;2023-05-18T13:15:35;23.30;32.30
38325;DHT22;24126;52.672;13.622;2023-05-18T13:18:06;23.40;31.50
38325;DHT22;24126;52.672;13.622;2023-05-18T13:20:39;23.50;31.40
38325;DHT22;24126;52.672;13.622;2023-05-18T13:23:07;23.40;31.40
38325;DHT22;24126;52.672;13.622;2023-05-18T13:25:34;23.20;31.50
38325;DHT22;24126;52.672;13.622;2023-05-18T13:28:01;23.00;31.30
38325;DHT22;24126;52.672;13.622;2023-05-18T13:30:28;22.90;32.00
38325;DHT22;24126;52.672;13.622;2023-05-18T13:32:55;22.80;32.10
38325;DHT22;24126;52.672;13.622;2023-05-18T13:35:23;22.80;32.10
38325;DHT22;24126;52.672;13.622;2023-05-18T13:37:50;22.70;32.50
38325;DHT22;24126;52.672;13.622;2023-05-18T13:40:18;22.60;32.80
38325;DHT22;24126;52.672;13.622;2023-05-18T13:42:45;22.50;33.30
38325;DHT22;24126;52.672;13.622;2023-05-18T13:45:13;22.40;33.10
38325;DHT22;24126;52.672;13.622;2023-05-18T13:47:40;22.40;32.80
38325;DHT22;24126;52.672;13.622;2023-05-18T13:50:07;22.40;32.70
38325;DHT22;24126;52.672;13.622;2023-05-18T13:52:35;22.20;33.40
38325;DHT22;24126;52.672;13.622;2023-05-18T13:55:03;22.20;32.70
38325;DHT22;24126;52.672;13.622;2023-05-18T13:57:30;22.30;32.70
38325;DHT22;24126;52.672;13.622;2023-05-18T13:59:57;22.30;32.60
38325;DHT22;24126;52.672;13.622;2023-05-18T14:02:40;22.30;32.80
38325;DHT22;24126;52.672;13.622;2023-05-18T14:05:08;22.30;32.30
38325;DHT22;24126;52.672;13.622;2023-05-18T14:07:35;22.30;32.60
38325;DHT22;24126;52.672;13.622;2023-05-18T14:10:02;22.30;32.70
38325;DHT22;24126;52.672;13.622;2023-05-18T14:12:29;22.20;32.80
38325;DHT22;24126;52.672;13.622;2023-05-18T14:14:57;22.20;33.40
38325;DHT22;24126;52.672;13.622;2023-05-18T14:17:24;22.20;33.20
38325;DHT22;24126;52.672;13.622;2023-05-18T14:19:52;22.30;33.30
38325;DHT22;24126;52.672;13.622;2023-05-18T14:22:19;22.40;33.10
38325;DHT22;24126;52.672;13.622;2023-05-18T14:24:49;22.50;32.60
38325;DHT22;24126;52.672;13.622;2023-05-18T14:27:16;22.40;32.40
38325;DHT22;24126;52.672;13.622;2023-05-18T14:29:45;22.30;32.50
38325;DHT22;24126;52.672;13.622;2023-05-18T14:32:12;22.40;32.80
38325;DHT22;24126;52.672;13.622;2023-05-18T14:34:39;22.40;32.80
38325;DHT22;24126;52.672;13.622;2023-05-18T14:37:06;22.30;32.40
38325;DHT22;24126;52.672;13.622;2023-05-18T14:39:33;22.20;32.60
38325;DHT22;24126;52.672;13.622;2023-05-18T14:42:00;22.20;33.30
38325;DHT22;24126;52.672;13.622;2023-05-18T14:44:27;22.20;32.50
38325;DHT22;24126;52.672;13.622;2023-05-18T14:46:54;22.30;32.50
38325;DHT22;24126;52.672;13.622;2023-05-18T14:49:21;22.20;32.80
38325;DHT22;24126;52.672;13.622;2023-05-18T14:51:48;22.20;32.80
38325;DHT22;24126;52.672;13.622;2023-05-18T14:54:15;22.20;32.50
38325;DHT22;24126;52.672;13.622;2023-05-18T14:56:43;22.10;33.40
38325;DHT22;24126;52.672;13.622;2023-05-18T14:59:10;22.20;33.20
38325;DHT22;24126;52.672;13.622;2023-05-18T15:01:37;22.20;33.00
38325;DHT22;24126;52.672;13.622;2023-05-18T15:04:04;22.20;32.80
38325;DHT22;24126;52.672;13.622;2023-05-18T15:06:31;22.20;32.50
38325;DHT22;24126;52.672;13.622;2023-05-18T15:08:58;22.30;32.40
38325;DHT22;24126;52.672;13.622;2023-05-18T15:11:25;22.30;32.10
38325;DHT22;24126;52.672;13.622;2023-05-18T15:13:52;22.40;32.80
38325;DHT22;24126;52.672;13.622;2023-05-18T15:16:19;22.40;33.40
38325;DHT22;24126;52.672;13.622;2023-05-18T15:18:46;22.50;32.80
38325;DHT22;24126;52.672;13.622;2023-05-18T15:21:13;22.50;32.20
38325;DHT22;24126;52.672;13.622;2023-05-18T15:23:40;22.50;32.60
38325;DHT22;24126;52.672;13.622;2023-05-18T15:26:07;22.50;32.40
38325;DHT22;24126;52.672;13.622;2023-05-18T15:28:34;22.50;32.90
38325;DHT22;24126;52.672;13.622;2023-05-18T15:31:01;22.50;32.20
38325;DHT22;24126;52.672;13.622;2023-05-18T15:33:28;22.40;32.60
38325;DHT22;24126;52.672;13.622;2023-05-18T15:35:55;22.40;32.80
38325;DHT22;24126;52.672;13.622;2023-05-18T15:38:22;22.30;32.80
38325;DHT22;24126;52.672;13.622;2023-05-18T15:40:49;22.20;32.60
38325;DHT22;24126;52.672;13.622;2023-05-18T15:43:16;22.20;33.00
38325;DHT22;24126;52.672;13.622;2023-05-18T15:45:44;22.20;32.70
38325;DHT22;24126;52.672;13.622;2023-05-18T15:48:11;22.20;33.30